Impacts TAF Board
For situational awareness. Not to be used for flight planning purposes.
IDs:

KSEA - Seattle-Tacoma Intl, WA, US

Issued at 1122 UTC 25 Nov 2020
Updated at 1333 UTC 25 Nov 2020
Potential Impact None Slight Moderate High
Time1253Z 25/14Z 25/15Z 25/16Z 25/17Z 25/18Z 25/19Z 25/20Z 25/21Z 25/22Z 25/23Z 26/00Z 26/01Z 26/02Z>>
Type OBS PRVL PRVL PRVL PRVL PRVL PRVL PRVL PRVL PRVL PRVL PRVL PRVL PRVL
VIS 10 >6 >6 >6 >6 >6 >6 >6 >6 >6 >6 >6 >6 >6
CIG 18 20 20 20 20 20 20 25 25 25 25 25 25 25
Cover OVC OVC OVC OVC OVC OVC OVC BKN BKN BKN BKN BKN OVC OVC
FltCat MVFR MVFR MVFR MVFR MVFR MVFR MVFR MVFR MVFR MVFR MVFR MVFR MVFR MVFR
WX -- VCSH VCSH VCSH VCSH VCSH VCSH -- -- -- -- -- -- --
WDir 200 180 180 180 180 180 180 190 190 190 190 190 130 130
WSpd 13 10 10 10 10 10 10 6 6 6 6 6 4 4
WGst -- -- -- -- -- -- -- -- -- -- -- -- -- --
Raw TAF
KSEA 251122Z 2512/2618 18010KT P6SM VCSH SCT010 BKN020 OVC030
  FM252000 19006KT P6SM BKN025
  FM260100 13004KT P6SM OVC025
  FM260900 15004KT P6SM OVC015


Raw METAR
KSEA 251253Z 20013KT 10SM BKN018 BKN027 OVC080 06/04 A2996 RMK AO2 SLP152 T00610039 $
KSEA 251153Z 19010KT 9SM SCT010 OVC019 06/04 A2995 RMK AO2 SLP150 60000 70013 T00610044 10067 20061 50002 $
KSEA 251053Z 18010KT 10SM SCT010 BKN023 OVC065 06/04 A2995 RMK AO2 SLP150 T00610039 $
KSEA 251041Z 18011KT 10SM SCT011 BKN025 OVC031 06/04 A2995 RMK AO2 T00610044 $

METAR Board
Radar Display
Forecast Discussion
For situational awareness. Not to be used for flight planning purposes.